sensor_id;sensor_type;location;lat;lon;timestamp;pressure;altitude;pressure_sealevel;temperature;humidity
75627;BME280;67372;49.404;11.034;2023-02-01T00:00:12;98562.03;;;4.29;80.49
75627;BME280;67372;49.404;11.034;2023-02-01T00:02:38;98553.28;;;4.28;79.65
75627;BME280;67372;49.404;11.034;2023-02-01T00:05:05;98557.25;;;4.32;80.42
75627;BME280;67372;49.404;11.034;2023-02-01T00:07:32;98560.50;;;4.43;79.68
75627;BME280;67372;49.404;11.034;2023-02-01T00:09:58;98578.81;;;4.44;79.52
75627;BME280;67372;49.404;11.034;2023-02-01T00:12:24;98556.38;;;4.40;80.40
75627;BME280;67372;49.404;11.034;2023-02-01T00:14:51;98556.38;;;4.40;79.47
75627;BME280;67372;49.404;11.034;2023-02-01T00:17:17;98552.28;;;4.38;79.80
75627;BME280;67372;49.404;11.034;2023-02-01T00:19:43;98546.00;;;4.39;79.49
75627;BME280;67372;49.404;11.034;2023-02-01T00:22:10;98549.13;;;4.42;80.12
75627;BME280;67372;49.404;11.034;2023-02-01T00:24:36;98555.06;;;4.44;79.91
75627;BME280;67372;49.404;11.034;2023-02-01T00:27:02;98560.34;;;4.44;79.25
75627;BME280;67372;49.404;11.034;2023-02-01T00:29:29;98545.50;;;4.43;79.90
75627;BME280;67372;49.404;11.034;2023-02-01T00:31:55;98547.97;;;4.45;80.16
75627;BME280;67372;49.404;11.034;2023-02-01T00:34:21;98544.16;;;4.47;79.83
75627;BME280;67372;49.404;11.034;2023-02-01T00:36:48;98548.78;;;4.53;79.18
75627;BME280;67372;49.404;11.034;2023-02-01T00:39:15;98547.31;;;4.51;79.18
75627;BME280;67372;49.404;11.034;2023-02-01T00:41:41;98549.13;;;4.50;79.39
75627;BME280;67372;49.404;11.034;2023-02-01T00:44:08;98539.22;;;4.52;78.86
75627;BME280;67372;49.404;11.034;2023-02-01T00:46:34;98545.31;;;4.53;79.04
75627;BME280;67372;49.404;11.034;2023-02-01T00:49:00;98552.91;;;4.56;79.29
75627;BME280;67372;49.404;11.034;2023-02-01T00:51:28;98555.19;;;4.59;78.82
75627;BME280;67372;49.404;11.034;2023-02-01T00:53:55;98549.09;;;4.58;78.40
75627;BME280;67372;49.404;11.034;2023-02-01T00:56:22;98551.91;;;4.57;79.30
75627;BME280;67372;49.404;11.034;2023-02-01T00:58:48;98543.50;;;4.53;78.62
75627;BME280;67372;49.404;11.034;2023-02-01T01:01:19;98538.22;;;4.53;78.54
75627;BME280;67372;49.404;11.034;2023-02-01T01:03:55;98540.69;;;4.47;78.42
75627;BME280;67372;49.404;11.034;2023-02-01T01:06:29;98533.09;;;4.52;78.59
75627;BME280;67372;49.404;11.034;2023-02-01T01:08:58;98531.59;;;4.49;78.88
75627;BME280;67372;49.404;11.034;2023-02-01T01:11:27;98527.47;;;4.47;79.03
75627;BME280;67372;49.404;11.034;2023-02-01T01:13:56;98530.63;;;4.50;78.80
75627;BME280;67372;49.404;11.034;2023-02-01T01:16:24;98533.59;;;4.55;79.63
75627;BME280;67372;49.404;11.034;2023-02-01T01:18:52;98532.59;;;4.56;79.07
75627;BME280;67372;49.404;11.034;2023-02-01T01:21:18;98525.00;;;4.53;79.26
75627;BME280;67372;49.404;11.034;2023-02-01T01:23:46;98527.31;;;4.56;80.11
75627;BME280;67372;49.404;11.034;2023-02-01T01:26:18;98531.25;;;4.60;78.94
75627;BME280;67372;49.404;11.034;2023-02-01T01:28:45;98541.16;;;4.58;79.83
75627;BME280;67372;49.404;11.034;2023-02-01T01:31:13;98522.03;;;4.56;80.02
75627;BME280;67372;49.404;11.034;2023-02-01T01:33:41;98537.06;;;4.56;79.88
75627;BME280;67372;49.404;11.034;2023-02-01T01:36:08;98540.50;;;4.56;80.09
75627;BME280;67372;49.404;11.034;2023-02-01T01:38:34;98530.47;;;4.52;80.45
75627;BME280;67372;49.404;11.034;2023-02-01T01:41:01;98529.28;;;4.54;80.29
75627;BME280;67372;49.404;11.034;2023-02-01T01:43:46;98536.88;;;4.57;79.46
75627;BME280;67372;49.404;11.034;2023-02-01T01:46:17;98534.09;;;4.51;80.68
75627;BME280;67372;49.404;11.034;2023-02-01T01:48:45;98526.81;;;4.45;79.68
75627;BME280;67372;49.404;11.034;2023-02-01T01:51:17;98518.91;;;4.45;80.00
75627;BME280;67372;49.404;11.034;2023-02-01T01:53:53;98511.16;;;4.51;79.27
75627;BME280;67372;49.404;11.034;2023-02-01T01:56:22;98513.78;;;4.43;80.70
75627;BME280;67372;49.404;11.034;2023-02-01T01:58:49;98517.25;;;4.44;80.61
75627;BME280;67372;49.404;11.034;2023-02-01T02:01:16;98512.63;;;4.46;79.27
75627;BME280;67372;49.404;11.034;2023-02-01T02:03:44;98507.69;;;4.43;79.71
75627;BME280;67372;49.404;11.034;2023-02-01T02:08:42;98508.00;;;4.48;79.04
75627;BME280;67372;49.404;11.034;2023-02-01T02:11:12;98509.97;;;4.46;79.54
75627;BME280;67372;49.404;11.034;2023-02-01T02:13:44;98516.75;;;4.48;79.75
75627;BME280;67372;49.404;11.034;2023-02-01T02:27:25;98496.78;;;4.46;79.78
75627;BME280;67372;49.404;11.034;2023-02-01T02:35:45;98493.78;;;4.49;79.58
75627;BME280;67372;49.404;11.034;2023-02-01T02:38:45;98486.88;;;4.48;79.40
75627;BME280;67372;49.404;11.034;2023-02-01T02:41:15;98491.16;;;4.49;79.63
75627;BME280;67372;49.404;11.034;2023-02-01T02:43:46;98488.69;;;4.47;80.56
75627;BME280;67372;49.404;11.034;2023-02-01T02:46:24;98497.94;;;4.51;80.04
75627;BME280;67372;49.404;11.034;2023-02-01T02:49:19;98493.47;;;4.52;79.96
75627;BME280;67372;49.404;11.034;2023-02-01T02:51:41;98493.66;;;4.50;79.96
75627;BME280;67372;49.404;11.034;2023-02-01T02:54:18;98497.59;;;4.54;79.82
75627;BME280;67372;49.404;11.034;2023-02-01T02:56:47;98492.97;;;4.48;80.44
75627;BME280;67372;49.404;11.034;2023-02-01T02:59:17;98495.31;;;4.43;80.68
75627;BME280;67372;49.404;11.034;2023-02-01T03:01:45;98486.38;;;4.44;79.79
75627;BME280;67372;49.404;11.034;2023-02-01T03:04:12;98478.47;;;4.44;79.62
75627;BME280;67372;49.404;11.034;2023-02-01T03:06:39;98484.91;;;4.42;79.92
75627;BME280;67372;49.404;11.034;2023-02-01T03:09:12;98481.78;;;4.38;80.83
75627;BME280;67372;49.404;11.034;2023-02-01T03:11:41;98467.59;;;4.39;80.15
75627;BME280;67372;49.404;11.034;2023-02-01T03:14:13;98461.50;;;4.39;80.67
75627;BME280;67372;49.404;11.034;2023-02-01T03:16:46;98461.66;;;4.37;80.99
75627;BME280;67372;49.404;11.034;2023-02-01T03:19:31;98462.84;;;4.35;81.31
75627;BME280;67372;49.404;11.034;2023-02-01T03:22:03;98449.50;;;4.28;81.30
75627;BME280;67372;49.404;11.034;2023-02-01T03:24:41;98452.78;;;4.30;81.05
75627;BME280;67372;49.404;11.034;2023-02-01T03:27:32;98440.56;;;4.29;81.52
75627;BME280;67372;49.404;11.034;2023-02-01T03:32:48;98454.59;;;4.29;81.63
75627;BME280;67372;49.404;11.034;2023-02-01T03:35:15;98461.19;;;4.34;81.02
75627;BME280;67372;49.404;11.034;2023-02-01T03:37:42;98458.19;;;4.37;80.87
75627;BME280;67372;49.404;11.034;2023-02-01T03:40:11;98447.00;;;4.35;80.98
75627;BME280;67372;49.404;11.034;2023-02-01T03:42:47;98443.00;;;4.39;80.57
75627;BME280;67372;49.404;11.034;2023-02-01T03:47:49;98437.72;;;4.39;80.43
75627;BME280;67372;49.404;11.034;2023-02-01T03:50:21;98448.41;;;4.45;79.99
75627;BME280;67372;49.404;11.034;2023-02-01T03:52:53;98438.03;;;4.44;80.54
75627;BME280;67372;49.404;11.034;2023-02-01T03:55:23;98434.91;;;4.40;81.07
75627;BME280;67372;49.404;11.034;2023-02-01T04:00:35;98424.34;;;4.40;80.70
75627;BME280;67372;49.404;11.034;2023-02-01T04:03:03;98429.09;;;4.45;80.87
75627;BME280;67372;49.404;11.034;2023-02-01T04:05:30;98416.06;;;4.43;80.05
75627;BME280;67372;49.404;11.034;2023-02-01T04:07:57;98423.47;;;4.48;80.00
75627;BME280;67372;49.404;11.034;2023-02-01T04:10:24;98424.81;;;4.52;79.80
75627;BME280;67372;49.404;11.034;2023-02-01T04:12:51;98425.28;;;4.47;80.13
75627;BME280;67372;49.404;11.034;2023-02-01T04:15:17;98415.88;;;4.53;79.41
75627;BME280;67372;49.404;11.034;2023-02-01T04:17:44;98406.78;;;4.55;80.31
75627;BME280;67372;49.404;11.034;2023-02-01T04:20:11;98409.78;;;4.52;79.42
75627;BME280;67372;49.404;11.034;2023-02-01T04:22:37;98416.88;;;4.52;79.58
75627;BME280;67372;49.404;11.034;2023-02-01T04:25:04;98405.78;;;4.56;79.17
75627;BME280;67372;49.404;11.034;2023-02-01T04:27:30;98411.91;;;4.57;78.70
75627;BME280;67372;49.404;11.034;2023-02-01T04:29:56;98428.28;;;4.52;79.52
75627;BME280;67372;49.404;11.034;2023-02-01T04:32:23;98413.91;;;4.47;79.58
75627;BME280;67372;49.404;11.034;2023-02-01T04:34:50;98423.00;;;4.44;79.20
75627;BME280;67372;49.404;11.034;2023-02-01T04:37:16;98415.56;;;4.48;79.62
75627;BME280;67372;49.404;11.034;2023-02-01T04:39:42;98410.59;;;4.53;79.02
75627;BME280;67372;49.404;11.034;2023-02-01T04:42:09;98413.25;;;4.53;78.95
75627;BME280;67372;49.404;11.034;2023-02-01T04:44:35;98404.66;;;4.51;78.47
75627;BME280;67372;49.404;11.034;2023-02-01T04:47:01;98404.97;;;4.56;79.09
75627;BME280;67372;49.404;11.034;2023-02-01T04:49:28;98407.78;;;4.54;79.12
75627;BME280;67372;49.404;11.034;2023-02-01T04:51:54;98405.97;;;4.55;79.32
75627;BME280;67372;49.404;11.034;2023-02-01T04:54:20;98399.41;;;4.43;79.78
75627;BME280;67372;49.404;11.034;2023-02-01T04:56:47;98394.81;;;4.37;80.12
75627;BME280;67372;49.404;11.034;2023-02-01T04:59:13;98399.09;;;4.38;80.79
75627;BME280;67372;49.404;11.034;2023-02-01T05:01:39;98408.53;;;4.32;81.97
75627;BME280;67372;49.404;11.034;2023-02-01T05:04:06;98405.59;;;4.27;81.78
75627;BME280;67372;49.404;11.034;2023-02-01T05:06:32;98397.50;;;4.28;81.82
75627;BME280;67372;49.404;11.034;2023-02-01T05:08:59;98415.47;;;4.25;82.15
75627;BME280;67372;49.404;11.034;2023-02-01T05:11:25;98402.44;;;4.23;81.82
75627;BME280;67372;49.404;11.034;2023-02-01T05:13:52;98403.44;;;4.22;81.91
75627;BME280;67372;49.404;11.034;2023-02-01T05:16:18;98398.69;;;4.18;81.81
75627;BME280;67372;49.404;11.034;2023-02-01T05:18:44;98387.13;;;4.19;83.07
75627;BME280;67372;49.404;11.034;2023-02-01T05:21:11;98392.06;;;4.22;81.62
75627;BME280;67372;49.404;11.034;2023-02-01T05:23:37;98389.25;;;4.23;82.02
75627;BME280;67372;49.404;11.034;2023-02-01T05:26:04;98379.88;;;4.21;83.06
75627;BME280;67372;49.404;11.034;2023-02-01T05:28:30;98393.53;;;4.24;82.69
75627;BME280;67372;49.404;11.034;2023-02-01T05:30:56;98394.38;;;4.25;82.40
75627;BME280;67372;49.404;11.034;2023-02-01T05:33:23;98399.00;;;4.23;83.88
75627;BME280;67372;49.404;11.034;2023-02-01T05:35:49;98396.34;;;4.23;83.50
75627;BME280;67372;49.404;11.034;2023-02-01T05:38:15;98404.09;;;4.24;83.70
75627;BME280;67372;49.404;11.034;2023-02-01T05:40:42;98406.44;;;4.19;83.86
75627;BME280;67372;49.404;11.034;2023-02-01T05:43:08;98409.41;;;4.16;83.95
75627;BME280;67372;49.404;11.034;2023-02-01T05:45:35;98408.94;;;4.13;84.49
75627;BME280;67372;49.404;11.034;2023-02-01T05:48:01;98406.16;;;4.06;85.37
75627;BME280;67372;49.404;11.034;2023-02-01T05:50:27;98408.97;;;4.05;85.04
75627;BME280;67372;49.404;11.034;2023-02-01T05:52:54;98412.94;;;4.00;85.34
75627;BME280;67372;49.404;11.034;2023-02-01T05:55:20;98420.00;;;4.00;85.90
75627;BME280;67372;49.404;11.034;2023-02-01T05:57:46;98416.38;;;4.01;85.44
75627;BME280;67372;49.404;11.034;2023-02-01T06:00:13;98419.53;;;3.96;86.20
75627;BME280;67372;49.404;11.034;2023-02-01T06:02:39;98413.78;;;3.93;85.47
75627;BME280;67372;49.404;11.034;2023-02-01T06:05:06;98417.28;;;3.85;86.51
75627;BME280;67372;49.404;11.034;2023-02-01T06:07:33;98413.63;;;3.86;86.03
75627;BME280;67372;49.404;11.034;2023-02-01T06:09:59;98406.53;;;3.87;85.81
75627;BME280;67372;49.404;11.034;2023-02-01T06:12:25;98397.31;;;3.83;85.67
75627;BME280;67372;49.404;11.034;2023-02-01T06:14:52;98405.06;;;3.84;85.59
75627;BME280;67372;49.404;11.034;2023-02-01T06:17:18;98406.06;;;3.83;85.73
75627;BME280;67372;49.404;11.034;2023-02-01T06:19:44;98400.28;;;3.88;84.85
75627;BME280;67372;49.404;11.034;2023-02-01T06:22:11;98400.28;;;3.88;84.98
75627;BME280;67372;49.404;11.034;2023-02-01T06:24:37;98390.38;;;3.90;84.70
75627;BME280;67372;49.404;11.034;2023-02-01T06:27:03;98390.72;;;3.87;85.18
75627;BME280;67372;49.404;11.034;2023-02-01T06:29:29;98383.31;;;3.82;85.57
75627;BME280;67372;49.404;11.034;2023-02-01T06:31:56;98391.06;;;3.76;85.25
75627;BME280;67372;49.404;11.034;2023-02-01T06:34:22;98387.25;;;3.86;84.21
75627;BME280;67372;49.404;11.034;2023-02-01T06:36:48;98386.56;;;3.92;83.79
75627;BME280;67372;49.404;11.034;2023-02-01T06:39:15;98388.03;;;3.95;84.02
75627;BME280;67372;49.404;11.034;2023-02-01T06:41:45;98387.22;;;4.03;83.30
75627;BME280;67372;49.404;11.034;2023-02-01T06:44:11;98393.97;;;4.05;83.50
75627;BME280;67372;49.404;11.034;2023-02-01T06:46:38;98395.59;;;4.06;83.33
75627;BME280;67372;49.404;11.034;2023-02-01T06:49:04;98388.66;;;4.13;83.28
75627;BME280;67372;49.404;11.034;2023-02-01T06:51:31;98397.56;;;4.12;82.51
75627;BME280;67372;49.404;11.034;2023-02-01T06:53:57;98396.44;;;4.07;83.11
75627;BME280;67372;49.404;11.034;2023-02-01T06:56:24;98386.53;;;4.00;83.04
75627;BME280;67372;49.404;11.034;2023-02-01T06:58:51;98392.97;;;3.98;82.96
75627;BME280;67372;49.404;11.034;2023-02-01T07:01:18;98387.03;;;3.96;83.06
75627;BME280;67372;49.404;11.034;2023-02-01T07:03:49;98378.66;;;3.92;83.93
75627;BME280;67372;49.404;11.034;2023-02-01T07:06:16;98381.78;;;3.96;83.47
75627;BME280;67372;49.404;11.034;2023-02-01T07:08:43;98399.25;;;4.05;83.16
75627;BME280;67372;49.404;11.034;2023-02-01T07:11:11;98391.16;;;4.07;83.13
75627;BME280;67372;49.404;11.034;2023-02-01T07:13:38;98390.34;;;4.06;83.00
75627;BME280;67372;49.404;11.034;2023-02-01T07:16:09;98394.97;;;4.04;83.25
75627;BME280;67372;49.404;11.034;2023-02-01T07:18:36;98394.44;;;4.00;83.87
75627;BME280;67372;49.404;11.034;2023-02-01T07:21:03;98397.44;;;4.06;83.25
75627;BME280;67372;49.404;11.034;2023-02-01T07:23:29;98397.78;;;4.03;83.65
75627;BME280;67372;49.404;11.034;2023-02-01T07:26:01;98401.06;;;4.05;83.62
75627;BME280;67372;49.404;11.034;2023-02-01T07:28:30;98399.72;;;4.00;84.33
75627;BME280;67372;49.404;11.034;2023-02-01T07:31:07;98393.31;;;4.03;83.51
75627;BME280;67372;49.404;11.034;2023-02-01T07:33:34;98387.03;;;4.04;83.60
75627;BME280;67372;49.404;11.034;2023-02-01T07:36:06;98389.34;;;4.07;84.00
75627;BME280;67372;49.404;11.034;2023-02-01T07:38:32;98383.38;;;4.13;83.74
75627;BME280;67372;49.404;11.034;2023-02-01T07:41:00;98387.66;;;4.14;83.09
75627;BME280;67372;49.404;11.034;2023-02-01T07:43:28;98400.16;;;4.20;83.05
75627;BME280;67372;49.404;11.034;2023-02-01T07:45:55;98399.63;;;4.33;82.09
75627;BME280;67372;49.404;11.034;2023-02-01T07:48:22;98402.75;;;4.37;81.97
75627;BME280;67372;49.404;11.034;2023-02-01T07:53:26;98385.91;;;4.38;81.84
75627;BME280;67372;49.404;11.034;2023-02-01T07:55:53;98389.19;;;4.40;81.25
75627;BME280;67372;49.404;11.034;2023-02-01T07:58:19;98393.19;;;4.36;80.98
75627;BME280;67372;49.404;11.034;2023-02-01T08:00:45;98379.63;;;4.39;81.30
75627;BME280;67372;49.404;11.034;2023-02-01T08:03:12;98380.97;;;4.35;80.75
75627;BME280;67372;49.404;11.034;2023-02-01T08:05:38;98370.34;;;4.43;80.39
75627;BME280;67372;49.404;11.034;2023-02-01T08:08:05;98387.56;;;4.39;80.74
75627;BME280;67372;49.404;11.034;2023-02-01T08:10:31;98376.47;;;4.43;80.77
75627;BME280;67372;49.404;11.034;2023-02-01T08:12:58;98389.88;;;4.34;81.88
75627;BME280;67372;49.404;11.034;2023-02-01T08:15:26;98380.78;;;4.36;80.64
75627;BME280;67372;49.404;11.034;2023-02-01T08:17:53;98382.50;;;4.29;80.75
75627;BME280;67372;49.404;11.034;2023-02-01T08:20:19;98390.88;;;4.32;80.63
75627;BME280;67372;49.404;11.034;2023-02-01T08:22:46;98394.38;;;4.25;80.41
75627;BME280;67372;49.404;11.034;2023-02-01T08:25:12;98382.66;;;4.27;80.18
75627;BME280;67372;49.404;11.034;2023-02-01T08:27:38;98392.88;;;4.30;80.08
75627;BME280;67372;49.404;11.034;2023-02-01T08:30:05;98374.22;;;4.32;81.02
75627;BME280;67372;49.404;11.034;2023-02-01T08:32:33;98386.19;;;4.43;80.40
75627;BME280;67372;49.404;11.034;2023-02-01T08:34:59;98389.94;;;4.56;79.40
75627;BME280;67372;49.404;11.034;2023-02-01T08:37:26;98397.00;;;4.64;80.09
75627;BME280;67372;49.404;11.034;2023-02-01T08:39:52;98404.03;;;4.72;79.24
75627;BME280;67372;49.404;11.034;2023-02-01T08:42:18;98410.75;;;4.82;78.32
75627;BME280;67372;49.404;11.034;2023-02-01T08:44:44;98407.13;;;4.83;78.36
75627;BME280;67372;49.404;11.034;2023-02-01T08:47:11;98412.69;;;4.88;78.68
75627;BME280;67372;49.404;11.034;2023-02-01T08:49:37;98422.72;;;5.01;78.46
75627;BME280;67372;49.404;11.034;2023-02-01T08:52:04;98413.06;;;5.08;77.46
75627;BME280;67372;49.404;11.034;2023-02-01T08:54:40;98416.34;;;5.10;77.05
75627;BME280;67372;49.404;11.034;2023-02-01T08:57:07;98408.44;;;5.10;77.43
75627;BME280;67372;49.404;11.034;2023-02-01T08:59:33;98402.97;;;5.12;77.70
75627;BME280;67372;49.404;11.034;2023-02-01T09:01:59;98418.00;;;5.11;78.10
75627;BME280;67372;49.404;11.034;2023-02-01T09:04:26;98413.78;;;5.25;77.01
75627;BME280;67372;49.404;11.034;2023-02-01T09:06:52;98414.19;;;5.14;77.62
75627;BME280;67372;49.404;11.034;2023-02-01T09:09:18;98417.94;;;5.19;77.23
75627;BME280;67372;49.404;11.034;2023-02-01T09:11:45;98419.72;;;5.27;77.22
75627;BME280;67372;49.404;11.034;2023-02-01T09:14:11;98407.34;;;5.19;77.60
75627;BME280;67372;49.404;11.034;2023-02-01T09:16:37;98416.88;;;5.06;78.29
75627;BME280;67372;49.404;11.034;2023-02-01T09:19:04;98421.25;;;4.99;79.66
75627;BME280;67372;49.404;11.034;2023-02-01T09:21:50;98431.13;;;4.97;79.66
75627;BME280;67372;49.404;11.034;2023-02-01T09:24:16;98441.41;;;4.91;79.73
75627;BME280;67372;49.404;11.034;2023-02-01T09:26:43;98444.34;;;4.74;81.21
75627;BME280;67372;49.404;11.034;2023-02-01T09:29:09;98462.50;;;4.77;81.03
75627;BME280;67372;49.404;11.034;2023-02-01T09:31:36;98459.22;;;4.75;81.80
75627;BME280;67372;49.404;11.034;2023-02-01T09:34:05;98468.03;;;4.59;82.88
75627;BME280;67372;49.404;11.034;2023-02-01T09:36:33;98464.44;;;4.52;81.40
75627;BME280;67372;49.404;11.034;2023-02-01T09:39:00;98477.84;;;4.34;80.54
75627;BME280;67372;49.404;11.034;2023-02-01T09:41:43;98508.94;;;3.91;82.02
75627;BME280;67372;49.404;11.034;2023-02-01T09:44:30;98513.59;;;3.81;83.01
75627;BME280;67372;49.404;11.034;2023-02-01T09:47:20;98500.88;;;3.68;81.73
75627;BME280;67372;49.404;11.034;2023-02-01T09:50:03;98487.38;;;3.55;80.14
75627;BME280;67372;49.404;11.034;2023-02-01T09:55:36;98500.22;;;3.58;82.01
75627;BME280;67372;49.404;11.034;2023-02-01T09:58:08;98503.03;;;3.57;82.26
75627;BME280;67372;49.404;11.034;2023-02-01T10:00:39;98509.78;;;3.67;81.79
75627;BME280;67372;49.404;11.034;2023-02-01T10:03:12;98505.50;;;3.83;82.49
75627;BME280;67372;49.404;11.034;2023-02-01T10:10:49;98524.78;;;4.63;83.00
75627;BME280;67372;49.404;11.034;2023-02-01T10:19:03;98521.56;;;5.23;79.38
75627;BME280;67372;49.404;11.034;2023-02-01T10:21:42;98525.41;;;5.12;78.70
75627;BME280;67372;49.404;11.034;2023-02-01T10:24:36;98532.44;;;5.28;78.21
75627;BME280;67372;49.404;11.034;2023-02-01T10:27:13;98517.91;;;5.24;77.99
75627;BME280;67372;49.404;11.034;2023-02-01T10:29:42;98504.47;;;5.34;75.98
75627;BME280;67372;49.404;11.034;2023-02-01T10:32:35;98511.09;;;5.30;76.08
75627;BME280;67372;49.404;11.034;2023-02-01T10:35:10;98504.53;;;5.26;75.44
75627;BME280;67372;49.404;11.034;2023-02-01T10:37:41;98506.00;;;5.28;75.40
75627;BME280;67372;49.404;11.034;2023-02-01T10:40:24;98504.28;;;5.35;75.04
75627;BME280;67372;49.404;11.034;2023-02-01T10:42:56;98504.41;;;5.42;74.71
75627;BME280;67372;49.404;11.034;2023-02-01T10:45:26;98495.22;;;5.30;75.55
75627;BME280;67372;49.404;11.034;2023-02-01T10:47:55;98493.63;;;5.43;74.98
75627;BME280;67372;49.404;11.034;2023-02-01T10:50:33;98492.53;;;5.61;74.65
75627;BME280;67372;49.404;11.034;2023-02-01T10:53:06;98504.38;;;5.65;74.24
75627;BME280;67372;49.404;11.034;2023-02-01T10:55:40;98484.09;;;5.80;73.01
75627;BME280;67372;49.404;11.034;2023-02-01T10:58:15;98482.72;;;5.84;72.52
75627;BME280;67372;49.404;11.034;2023-02-01T11:00:47;98479.41;;;5.90;73.52
75627;BME280;67372;49.404;11.034;2023-02-01T11:03:37;98469.28;;;6.08;71.97
75627;BME280;67372;49.404;11.034;2023-02-01T11:06:18;98466.50;;;6.25;69.91
75627;BME280;67372;49.404;11.034;2023-02-01T11:08:51;98483.19;;;6.25;70.44
75627;BME280;67372;49.404;11.034;2023-02-01T11:11:18;98473.16;;;6.21;69.18
75627;BME280;67372;49.404;11.034;2023-02-01T11:13:56;98477.88;;;6.10;69.20
75627;BME280;67372;49.404;11.034;2023-02-01T11:16:30;98475.53;;;6.15;69.72
75627;BME280;67372;49.404;11.034;2023-02-01T11:18:58;98458.97;;;6.13;70.06
75627;BME280;67372;49.404;11.034;2023-02-01T11:21:24;98463.66;;;6.26;69.25
75627;BME280;67372;49.404;11.034;2023-02-01T11:23:51;98468.13;;;6.26;68.17
75627;BME280;67372;49.404;11.034;2023-02-01T11:26:22;98455.09;;;6.39;67.88
75627;BME280;67372;49.404;11.034;2023-02-01T11:29:12;98442.34;;;6.34;67.48
75627;BME280;67372;49.404;11.034;2023-02-01T11:31:40;98447.56;;;6.28;67.60
75627;BME280;67372;49.404;11.034;2023-02-01T11:34:18;98444.63;;;6.08;67.82
75627;BME280;67372;49.404;11.034;2023-02-01T11:36:48;98429.47;;;6.02;67.61
75627;BME280;67372;49.404;11.034;2023-02-01T11:39:23;98441.09;;;6.01;68.46
75627;BME280;67372;49.404;11.034;2023-02-01T11:44:26;98436.16;;;5.98;68.30
75627;BME280;67372;49.404;11.034;2023-02-01T11:47:17;98435.06;;;5.92;69.72
75627;BME280;67372;49.404;11.034;2023-02-01T11:49:44;98434.50;;;5.97;68.63
75627;BME280;67372;49.404;11.034;2023-02-01T12:00:42;98423.63;;;6.06;68.64
75627;BME280;67372;49.404;11.034;2023-02-01T12:03:29;98426.94;;;6.08;67.71
75627;BME280;67372;49.404;11.034;2023-02-01T12:06:08;98420.25;;;6.12;68.80
75627;BME280;67372;49.404;11.034;2023-02-01T12:09:04;98436.44;;;6.18;69.35
75627;BME280;67372;49.404;11.034;2023-02-01T12:11:43;98422.56;;;6.15;66.77
75627;BME280;67372;49.404;11.034;2023-02-01T12:14:33;98425.81;;;6.32;66.01
75627;BME280;67372;49.404;11.034;2023-02-01T12:17:23;98423.84;;;6.20;66.28
75627;BME280;67372;49.404;11.034;2023-02-01T12:20:16;98430.31;;;6.17;67.47
75627;BME280;67372;49.404;11.034;2023-02-01T12:37:31;98419.91;;;6.01;69.01
75627;BME280;67372;49.404;11.034;2023-02-01T12:42:52;98396.16;;;6.22;66.54
75627;BME280;67372;49.404;11.034;2023-02-01T12:45:34;98397.88;;;6.15;66.78
75627;BME280;67372;49.404;11.034;2023-02-01T12:48:17;98396.72;;;6.18;67.73
75627;BME280;67372;49.404;11.034;2023-02-01T12:50:55;98394.69;;;6.05;68.06
75627;BME280;67372;49.404;11.034;2023-02-01T12:53:26;98389.41;;;6.05;69.07
75627;BME280;67372;49.404;11.034;2023-02-01T12:55:59;98382.91;;;6.07;68.42
75627;BME280;67372;49.404;11.034;2023-02-01T13:01:12;98395.78;;;6.10;68.98
75627;BME280;67372;49.404;11.034;2023-02-01T13:03:52;98385.47;;;6.01;70.96
75627;BME280;67372;49.404;11.034;2023-02-01T13:06:23;98392.59;;;6.00;70.81
75627;BME280;67372;49.404;11.034;2023-02-01T13:11:49;98385.25;;;5.88;70.69
75627;BME280;67372;49.404;11.034;2023-02-01T13:16:59;98382.97;;;5.70;70.73
75627;BME280;67372;49.404;11.034;2023-02-01T13:19:49;98382.56;;;5.58;70.57
75627;BME280;67372;49.404;11.034;2023-02-01T13:22:39;98368.25;;;5.52;70.52
75627;BME280;67372;49.404;11.034;2023-02-01T13:25:35;98369.88;;;5.53;71.06
75627;BME280;67372;49.404;11.034;2023-02-01T13:28:11;98379.66;;;5.53;71.19
75627;BME280;67372;49.404;11.034;2023-02-01T13:33:59;98387.44;;;5.69;70.78
75627;BME280;67372;49.404;11.034;2023-02-01T13:36:49;98397.03;;;5.85;69.59
75627;BME280;67372;49.404;11.034;2023-02-01T13:42:59;98390.97;;;5.62;70.61
75627;BME280;67372;49.404;11.034;2023-02-01T13:45:27;98381.03;;;5.64;71.19
75627;BME280;67372;49.404;11.034;2023-02-01T13:47:58;98385.59;;;5.55;71.92
75627;BME280;67372;49.404;11.034;2023-02-01T13:50:29;98381.38;;;5.61;71.51
75627;BME280;67372;49.404;11.034;2023-02-01T13:53:04;98371.72;;;5.68;71.07
75627;BME280;67372;49.404;11.034;2023-02-01T13:55:39;98369.63;;;5.63;71.99
75627;BME280;67372;49.404;11.034;2023-02-01T13:58:18;98361.22;;;5.60;71.85
75627;BME280;67372;49.404;11.034;2023-02-01T14:00:45;98370.84;;;5.75;70.85
75627;BME280;67372;49.404;11.034;2023-02-01T14:03:56;98366.00;;;5.79;70.82
75627;BME280;67372;49.404;11.034;2023-02-01T14:06:05;98364.25;;;5.86;70.35
75627;BME280;67372;49.404;11.034;2023-02-01T14:08:42;98371.47;;;5.77;70.59
75627;BME280;67372;49.404;11.034;2023-02-01T14:11:47;98366.81;;;5.79;70.19
75627;BME280;67372;49.404;11.034;2023-02-01T14:19:32;98367.81;;;5.78;70.11
75627;BME280;67372;49.404;11.034;2023-02-01T14:22:31;98359.78;;;5.72;70.86
75627;BME280;67372;49.404;11.034;2023-02-01T14:24:54;98361.97;;;5.68;69.79
75627;BME280;67372;49.404;11.034;2023-02-01T14:27:28;98364.44;;;5.70;70.77
75627;BME280;67372;49.404;11.034;2023-02-01T14:30:00;98356.97;;;5.73;70.19
75627;BME280;67372;49.404;11.034;2023-02-01T14:32:38;98370.25;;;5.65;70.09
75627;BME280;67372;49.404;11.034;2023-02-01T14:35:12;98367.72;;;5.72;69.73
75627;BME280;67372;49.404;11.034;2023-02-01T14:37:43;98373.53;;;5.67;70.00
75627;BME280;67372;49.404;11.034;2023-02-01T14:47:45;98363.59;;;5.54;70.12
75627;BME280;67372;49.404;11.034;2023-02-01T14:52:46;98373.25;;;5.47;70.58
75627;BME280;67372;49.404;11.034;2023-02-01T14:57:57;98368.56;;;5.35;71.37
75627;BME280;67372;49.404;11.034;2023-02-01T15:00:27;98364.81;;;5.29;71.33
75627;BME280;67372;49.404;11.034;2023-02-01T15:03:12;98356.78;;;5.22;72.12